createdAt,value
2023-07-17T00:00:42.638Z,13.40
2023-07-17T00:03:12.714Z,13.30
2023-07-17T00:05:40.128Z,13.40
2023-07-17T00:08:07.833Z,13.40
2023-07-17T00:10:35.197Z,13.50
2023-07-17T00:13:02.352Z,13.60
2023-07-17T00:15:29.580Z,13.60
2023-07-17T00:17:56.812Z,13.50
2023-07-17T00:20:24.636Z,13.60
2023-07-17T00:22:51.780Z,13.60
2023-07-17T00:25:19.091Z,13.60
2023-07-17T00:27:46.203Z,13.60
2023-07-17T00:30:13.558Z,13.50
2023-07-17T00:32:40.942Z,13.50
2023-07-17T00:35:09.185Z,13.50
2023-07-17T00:37:36.523Z,13.50
2023-07-17T00:40:05.779Z,13.60
2023-07-17T00:42:32.945Z,13.60
2023-07-17T00:45:00.202Z,13.70
2023-07-17T00:47:31.206Z,13.70
2023-07-17T00:49:58.580Z,13.80
2023-07-17T00:52:26.709Z,13.90
2023-07-17T00:54:54.331Z,13.90
2023-07-17T00:57:23.961Z,13.90
2023-07-17T00:59:51.911Z,13.90
2023-07-17T01:02:19.590Z,13.90
2023-07-17T01:04:48.239Z,13.90
2023-07-17T01:07:16.788Z,13.90
2023-07-17T01:09:44.634Z,13.90
2023-07-17T01:12:11.890Z,14.00
2023-07-17T01:14:39.125Z,14.10
2023-07-17T01:17:06.451Z,14.20
2023-07-17T01:19:33.832Z,14.30
2023-07-17T01:22:05.946Z,14.40
2023-07-17T01:24:33.062Z,14.40
2023-07-17T01:27:00.252Z,14.50
2023-07-17T01:29:27.551Z,14.40
2023-07-17T01:31:54.901Z,14.40
2023-07-17T01:34:22.143Z,14.40
2023-07-17T01:36:49.420Z,14.30
2023-07-17T01:39:16.572Z,14.30
2023-07-17T01:41:43.751Z,14.20
2023-07-17T01:44:11.013Z,14.30
2023-07-17T01:46:38.236Z,14.20
2023-07-17T01:49:05.564Z,14.20
2023-07-17T01:51:32.786Z,14.20
2023-07-17T01:53:59.903Z,14.20
2023-07-17T01:56:27.176Z,14.20
2023-07-17T01:58:54.361Z,14.10
2023-07-17T02:01:21.953Z,14.00
2023-07-17T02:03:49.359Z,14.00
2023-07-17T02:06:18.223Z,14.00
2023-07-17T02:08:45.395Z,13.90
2023-07-17T02:11:12.654Z,14.00
2023-07-17T02:13:39.822Z,14.00
2023-07-17T02:16:07.097Z,14.10
2023-07-17T02:18:34.517Z,14.10
2023-07-17T02:21:01.902Z,14.20
2023-07-17T02:23:29.081Z,14.20
2023-07-17T02:25:56.225Z,14.20
2023-07-17T02:28:23.412Z,14.30
2023-07-17T02:30:50.553Z,14.20
2023-07-17T02:33:17.691Z,14.20
2023-07-17T02:35:44.881Z,14.30
2023-07-17T02:38:12.118Z,14.30
2023-07-17T02:40:39.334Z,14.20
2023-07-17T02:43:07.627Z,14.20
2023-07-17T02:45:34.932Z,14.30
2023-07-17T02:48:02.121Z,14.30
2023-07-17T02:50:29.308Z,14.30
2023-07-17T02:52:57.216Z,14.30
2023-07-17T02:55:25.240Z,14.30
2023-07-17T02:57:52.418Z,14.30
2023-07-17T03:00:20.065Z,14.30
2023-07-17T03:02:49.948Z,14.40
2023-07-17T03:05:17.488Z,14.40
2023-07-17T03:07:48.262Z,14.40
2023-07-17T03:10:15.880Z,14.50
2023-07-17T03:12:43.190Z,14.60
2023-07-17T03:15:11.321Z,14.60
2023-07-17T03:17:38.592Z,14.70
2023-07-17T03:20:07.553Z,14.80
2023-07-17T03:22:34.716Z,14.80
2023-07-17T03:25:06.586Z,14.90
2023-07-17T03:27:34.803Z,15.00
2023-07-17T03:30:02.017Z,15.00
2023-07-17T03:32:36.421Z,15.00
2023-07-17T03:35:06.458Z,15.10
2023-07-17T03:37:33.613Z,15.20
2023-07-17T03:40:00.791Z,15.20
2023-07-17T03:42:27.924Z,15.20
2023-07-17T03:44:55.225Z,15.30
2023-07-17T03:47:22.483Z,15.40
2023-07-17T03:49:49.825Z,15.50
2023-07-17T03:52:17.027Z,15.40
2023-07-17T03:54:44.194Z,15.40
2023-07-17T03:57:11.377Z,15.30
2023-07-17T04:00:11.984Z,15.50
2023-07-17T04:02:39.278Z,15.60
2023-07-17T04:05:07.469Z,15.50
2023-07-17T04:07:34.657Z,15.50
2023-07-17T04:10:01.841Z,15.60
2023-07-17T04:12:29.032Z,15.60
2023-07-17T04:14:56.367Z,15.80
2023-07-17T04:17:23.544Z,15.90
2023-07-17T04:19:50.812Z,16.00
2023-07-17T04:22:17.979Z,16.10
2023-07-17T04:24:45.205Z,16.30
2023-07-17T04:27:12.445Z,16.50
2023-07-17T04:29:39.685Z,16.70
2023-07-17T04:32:07.288Z,17.10
2023-07-17T04:34:34.537Z,17.20
2023-07-17T04:37:01.886Z,17.60
2023-07-17T04:39:31.883Z,18.10
2023-07-17T04:42:00.935Z,18.90
2023-07-17T04:44:28.234Z,19.90
2023-07-17T04:46:55.445Z,20.00
2023-07-17T04:49:22.733Z,20.50
2023-07-17T04:51:49.895Z,21.40
2023-07-17T04:54:17.092Z,21.10
2023-07-17T04:56:44.257Z,22.20
2023-07-17T04:59:11.522Z,21.30
2023-07-17T05:01:38.893Z,20.70
2023-07-17T05:04:06.257Z,19.80
2023-07-17T05:06:33.680Z,19.30
2023-07-17T05:09:02.649Z,19.20
2023-07-17T05:11:30.625Z,18.80
2023-07-17T05:13:57.756Z,18.20
2023-07-17T05:16:25.375Z,18.10
2023-07-17T05:18:52.643Z,17.80
2023-07-17T05:21:20.220Z,18.00
2023-07-17T05:23:47.585Z,18.00
2023-07-17T05:26:14.729Z,18.70
2023-07-17T05:28:41.934Z,19.10
2023-07-17T05:31:09.256Z,19.70
2023-07-17T05:33:36.664Z,20.20
2023-07-17T05:36:03.938Z,21.10
2023-07-17T05:38:31.126Z,22.70
2023-07-17T05:41:02.365Z,22.40
2023-07-17T05:43:33.237Z,22.50
2023-07-17T05:46:00.603Z,21.80
2023-07-17T05:48:27.735Z,21.00
2023-07-17T05:50:54.889Z,21.30
2023-07-17T05:53:22.122Z,21.40
2023-07-17T05:55:49.396Z,21.10
2023-07-17T05:58:16.588Z,21.20
2023-07-17T06:00:46.353Z,21.30
2023-07-17T06:03:13.620Z,21.20
2023-07-17T06:05:40.894Z,21.30
2023-07-17T06:08:10.043Z,20.40
2023-07-17T06:10:37.431Z,19.60
2023-07-17T06:13:04.853Z,20.20
2023-07-17T06:15:32.080Z,21.70
2023-07-17T06:17:59.222Z,21.80
2023-07-17T06:20:26.466Z,22.00
2023-07-17T06:22:53.702Z,21.70
2023-07-17T06:25:21.139Z,22.10
2023-07-17T06:27:48.408Z,22.50
2023-07-17T06:30:15.745Z,23.40
2023-07-17T06:32:43.120Z,23.20
2023-07-17T06:35:10.655Z,21.20
2023-07-17T06:37:37.974Z,20.90
2023-07-17T06:40:06.120Z,20.70
2023-07-17T06:42:34.670Z,20.20
2023-07-17T06:45:02.424Z,20.70
2023-07-17T06:47:37.270Z,20.90
2023-07-17T06:50:06.256Z,20.80
2023-07-17T06:52:33.492Z,20.90
2023-07-17T06:55:05.421Z,21.50
2023-07-17T06:57:33.536Z,22.30
2023-07-17T07:00:00.895Z,23.50
2023-07-17T07:02:28.202Z,24.50
2023-07-17T07:04:55.465Z,25.90
2023-07-17T07:07:22.687Z,26.80
2023-07-17T07:09:49.943Z,27.10
2023-07-17T07:12:17.191Z,25.60
2023-07-17T07:14:45.129Z,25.90
2023-07-17T07:17:12.520Z,25.60
2023-07-17T07:19:40.062Z,24.40
2023-07-17T07:22:07.278Z,23.10
2023-07-17T07:24:34.469Z,22.90
2023-07-17T07:27:01.700Z,22.00
2023-07-17T07:29:28.859Z,21.90
2023-07-17T07:31:56.050Z,21.80
2023-07-17T07:34:23.245Z,22.00
2023-07-17T07:36:50.471Z,22.70
2023-07-17T07:39:17.604Z,23.60
2023-07-17T07:41:45.082Z,24.20
2023-07-17T07:44:12.870Z,26.60
2023-07-17T07:46:40.589Z,27.20
2023-07-17T07:49:07.999Z,28.30
2023-07-17T07:51:35.193Z,28.10
2023-07-17T07:54:04.373Z,27.90
2023-07-17T07:56:31.490Z,28.80
2023-07-17T07:58:58.895Z,26.90
2023-07-17T08:01:26.206Z,26.20
2023-07-17T08:03:53.608Z,25.40
2023-07-17T08:06:20.945Z,24.60
2023-07-17T08:08:48.393Z,24.70
2023-07-17T08:11:15.631Z,23.80
2023-07-17T08:13:42.860Z,22.70
2023-07-17T08:16:10.129Z,23.20
2023-07-17T08:18:37.415Z,23.90
2023-07-17T08:21:05.010Z,24.30
2023-07-17T08:23:32.353Z,25.80
2023-07-17T08:25:59.603Z,25.30
2023-07-17T08:28:26.801Z,23.80
2023-07-17T08:30:54.735Z,24.60
2023-07-17T08:33:22.725Z,26.50
2023-07-17T08:35:53.032Z,26.80
2023-07-17T08:38:20.396Z,25.20
2023-07-17T08:40:53.065Z,23.50
2023-07-17T08:43:25.274Z,23.90
2023-07-17T08:45:53.864Z,24.40
2023-07-17T08:48:21.908Z,23.80
2023-07-17T08:50:51.750Z,23.50
2023-07-17T08:53:20.446Z,24.50
2023-07-17T08:55:49.057Z,25.00
2023-07-17T08:58:16.833Z,25.60
2023-07-17T09:00:46.027Z,24.70
2023-07-17T09:03:13.340Z,23.40
2023-07-17T09:05:40.711Z,22.80
2023-07-17T09:08:08.085Z,22.40
2023-07-17T09:10:37.219Z,21.70
2023-07-17T09:13:06.027Z,21.80
2023-07-17T09:15:34.242Z,21.60
2023-07-17T09:18:01.963Z,22.00
2023-07-17T09:20:29.229Z,21.80
2023-07-17T09:23:00.302Z,22.00
2023-07-17T09:25:29.212Z,22.10
2023-07-17T09:27:56.519Z,22.00
2023-07-17T09:30:26.138Z,22.20
2023-07-17T09:32:53.524Z,22.70
2023-07-17T09:35:21.720Z,22.70
2023-07-17T09:37:48.899Z,22.70
2023-07-17T09:40:19.327Z,22.60
2023-07-17T09:42:53.703Z,22.90
2023-07-17T09:45:21.441Z,23.60
2023-07-17T09:47:52.238Z,23.70
2023-07-17T09:50:21.035Z,24.00
2023-07-17T09:52:51.527Z,24.20
2023-07-17T09:55:25.613Z,24.20
2023-07-17T09:57:56.565Z,24.20
2023-07-17T10:00:26.139Z,24.40
2023-07-17T10:02:55.287Z,24.40
2023-07-17T10:05:23.771Z,24.40
2023-07-17T10:07:53.386Z,24.40
2023-07-17T10:10:20.982Z,24.00
2023-07-17T10:12:49.231Z,24.20
2023-07-17T10:15:17.062Z,24.00
2023-07-17T10:17:44.682Z,23.60
2023-07-17T10:20:13.638Z,23.80
2023-07-17T10:22:45.709Z,23.50
2023-07-17T10:25:19.197Z,23.70
2023-07-17T10:27:49.098Z,24.10
2023-07-17T10:30:22.666Z,24.20
2023-07-17T10:33:10.377Z,23.60
2023-07-17T10:35:57.989Z,23.60
2023-07-17T10:38:30.438Z,24.70
2023-07-17T10:41:06.557Z,24.40
2023-07-17T10:43:35.718Z,24.10
2023-07-17T10:46:09.760Z,23.60
2023-07-17T10:48:37.816Z,23.60
2023-07-17T10:51:05.202Z,23.20
2023-07-17T10:53:32.633Z,22.90
2023-07-17T10:55:59.873Z,22.40
2023-07-17T10:58:27.345Z,22.20
2023-07-17T11:00:56.235Z,21.80
2023-07-17T11:03:28.015Z,21.60
2023-07-17T11:05:59.619Z,21.30
2023-07-17T11:08:28.279Z,20.70
2023-07-17T11:10:55.873Z,19.80
2023-07-17T11:13:23.405Z,19.60
2023-07-17T11:15:50.571Z,19.90
2023-07-17T11:18:20.619Z,20.10
2023-07-17T11:20:49.966Z,20.10
2023-07-17T11:23:17.298Z,20.50
2023-07-17T11:25:44.527Z,20.70
2023-07-17T11:28:12.152Z,21.30
2023-07-17T11:30:40.223Z,21.30
2023-07-17T11:33:09.542Z,21.10
2023-07-17T11:35:40.577Z,20.70
2023-07-17T11:38:09.984Z,20.60
2023-07-17T11:41:00.409Z,21.00
2023-07-17T11:43:33.722Z,21.40
2023-07-17T11:46:03.977Z,20.90
2023-07-17T11:48:41.272Z,20.40
2023-07-17T11:51:08.606Z,20.10
2023-07-17T11:53:37.701Z,20.00
2023-07-17T11:56:05.414Z,20.10
2023-07-17T11:58:41.060Z,20.50
2023-07-17T12:01:08.953Z,20.90
2023-07-17T12:03:36.203Z,21.10
2023-07-17T12:06:03.550Z,21.30
2023-07-17T12:08:30.796Z,21.00
2023-07-17T12:10:58.462Z,20.70
2023-07-17T12:13:25.597Z,20.20
2023-07-17T12:15:53.017Z,20.40
2023-07-17T12:18:20.353Z,20.20
2023-07-17T12:20:48.025Z,20.10
2023-07-17T12:23:16.056Z,19.80
2023-07-17T12:25:44.236Z,19.40
2023-07-17T12:28:11.579Z,19.30
2023-07-17T12:30:39.370Z,19.40
2023-07-17T12:33:06.738Z,19.50
2023-07-17T12:35:34.011Z,19.30
2023-07-17T12:38:01.186Z,19.00
2023-07-17T12:40:28.585Z,18.70
2023-07-17T12:42:55.996Z,18.40
2023-07-17T12:45:23.553Z,18.40
2023-07-17T12:47:50.846Z,18.60
2023-07-17T12:50:18.325Z,19.00
2023-07-17T12:52:45.550Z,19.50
2023-07-17T12:55:12.795Z,20.30
2023-07-17T12:57:42.084Z,20.80
2023-07-17T13:00:10.055Z,21.10
2023-07-17T13:02:37.263Z,21.20
2023-07-17T13:05:04.955Z,21.00
2023-07-17T13:07:32.275Z,21.00
2023-07-17T13:09:59.839Z,21.10
2023-07-17T13:12:41.986Z,21.10
2023-07-17T13:15:10.519Z,21.00
2023-07-17T13:17:45.265Z,21.50
2023-07-17T13:20:13.820Z,21.70
2023-07-17T13:22:41.305Z,21.10
2023-07-17T13:25:08.980Z,20.90
2023-07-17T13:27:36.200Z,20.50
2023-07-17T13:30:03.683Z,20.70
2023-07-17T13:32:30.893Z,20.50
2023-07-17T13:34:58.007Z,20.30
2023-07-17T13:37:25.308Z,20.50
2023-07-17T13:39:52.528Z,20.70
2023-07-17T13:42:19.694Z,20.50
2023-07-17T13:44:46.908Z,20.10
2023-07-17T13:47:14.117Z,20.10
2023-07-17T13:49:41.925Z,20.30
2023-07-17T13:52:09.276Z,20.40
2023-07-17T13:54:36.497Z,20.20
2023-07-17T13:57:03.692Z,20.30
2023-07-17T13:59:31.002Z,20.40
2023-07-17T14:01:58.287Z,20.30
2023-07-17T14:04:25.566Z,20.90
2023-07-17T14:06:53.024Z,21.00
2023-07-17T14:09:20.227Z,21.10
2023-07-17T14:11:47.491Z,21.40
2023-07-17T14:14:15.029Z,21.40
2023-07-17T14:16:42.281Z,21.30
2023-07-17T14:19:09.415Z,21.50
2023-07-17T14:21:36.524Z,21.50
2023-07-17T14:24:04.705Z,21.20
2023-07-17T14:26:31.972Z,21.10
2023-07-17T14:29:00.154Z,20.80
2023-07-17T14:31:27.445Z,20.10
2023-07-17T14:33:54.569Z,20.20
2023-07-17T14:36:21.838Z,20.40
2023-07-17T14:38:49.335Z,20.50
2023-07-17T14:41:16.644Z,20.50
2023-07-17T14:43:43.894Z,20.70
2023-07-17T14:46:11.076Z,20.80
2023-07-17T14:48:38.244Z,20.70
2023-07-17T14:51:05.591Z,20.50
2023-07-17T14:53:33.922Z,20.50
2023-07-17T14:56:01.520Z,20.60
2023-07-17T14:58:28.683Z,20.80
2023-07-17T15:00:56.087Z,21.00
2023-07-17T15:03:23.502Z,21.10
2023-07-17T15:05:50.816Z,21.10
2023-07-17T15:08:18.204Z,20.70
2023-07-17T15:10:45.788Z,20.80
2023-07-17T15:13:13.468Z,20.60
2023-07-17T15:15:40.622Z,20.40
2023-07-17T15:18:07.869Z,20.20
2023-07-17T15:20:35.230Z,20.50
2023-07-17T15:23:02.524Z,20.50
2023-07-17T15:25:29.792Z,20.70
2023-07-17T15:27:58.285Z,20.80
2023-07-17T15:30:25.601Z,20.40
2023-07-17T15:32:52.687Z,20.10
2023-07-17T15:35:19.877Z,19.90
2023-07-17T15:37:47.082Z,19.80
2023-07-17T15:40:14.225Z,19.90
2023-07-17T15:42:41.377Z,20.00
2023-07-17T15:45:20.252Z,20.20
2023-07-17T15:47:47.638Z,20.10
2023-07-17T15:50:16.472Z,19.90
2023-07-17T15:52:43.883Z,20.10
2023-07-17T15:55:11.374Z,20.10
2023-07-17T15:57:39.208Z,20.20
2023-07-17T16:00:07.409Z,20.10
2023-07-17T16:02:35.046Z,20.20
2023-07-17T16:05:02.545Z,20.30
2023-07-17T16:07:29.823Z,20.30
2023-07-17T16:09:57.442Z,20.20
2023-07-17T16:12:24.976Z,20.10
2023-07-17T16:14:52.462Z,20.00
2023-07-17T16:17:19.609Z,19.90
2023-07-17T16:19:50.113Z,19.80
2023-07-17T16:22:17.767Z,19.80
2023-07-17T16:24:45.067Z,19.60
2023-07-17T16:27:12.244Z,19.60
2023-07-17T16:29:39.456Z,19.50
2023-07-17T16:32:07.375Z,19.40
2023-07-17T16:34:34.734Z,19.30
2023-07-17T16:37:01.980Z,19.40
2023-07-17T16:39:29.156Z,19.40
2023-07-17T16:41:56.470Z,19.50
2023-07-17T16:44:23.621Z,19.40
2023-07-17T16:46:52.320Z,19.40
2023-07-17T16:49:19.718Z,19.40
2023-07-17T16:51:47.035Z,19.50
2023-07-17T16:54:14.242Z,19.30
2023-07-17T16:56:41.532Z,19.20
2023-07-17T16:59:08.910Z,19.00
2023-07-17T17:01:36.194Z,18.90
2023-07-17T17:04:04.494Z,18.90
2023-07-17T17:06:31.783Z,18.80
2023-07-17T17:09:20.056Z,19.00
2023-07-17T17:11:49.481Z,19.10
2023-07-17T17:14:17.795Z,19.00
2023-07-17T17:16:45.410Z,19.10
2023-07-17T17:19:13.426Z,19.00
2023-07-17T17:21:40.654Z,19.00
2023-07-17T17:24:07.905Z,19.00
2023-07-17T17:26:35.218Z,19.00
2023-07-17T17:29:03.112Z,18.80
2023-07-17T17:31:31.513Z,18.90
2023-07-17T17:33:59.586Z,18.80
2023-07-17T17:36:27.803Z,18.70
2023-07-17T17:38:55.292Z,18.70
2023-07-17T17:41:22.921Z,18.80
2023-07-17T17:43:50.169Z,18.90
2023-07-17T17:46:17.461Z,19.00
2023-07-17T17:48:45.182Z,19.10
2023-07-17T17:51:12.606Z,19.20
2023-07-17T17:53:39.699Z,19.10
2023-07-17T17:56:06.990Z,19.10
2023-07-17T17:58:34.171Z,19.20
2023-07-17T18:01:02.012Z,19.30
2023-07-17T18:03:29.301Z,19.30
2023-07-17T18:05:57.322Z,19.20
2023-07-17T18:08:24.545Z,19.20
2023-07-17T18:10:51.918Z,19.20
2023-07-17T18:13:19.075Z,19.20
2023-07-17T18:15:46.590Z,19.30
2023-07-17T18:18:13.929Z,19.20
2023-07-17T18:20:41.450Z,18.90
2023-07-17T18:23:08.750Z,18.70
2023-07-17T18:25:36.411Z,18.50
2023-07-17T18:28:04.086Z,18.40
2023-07-17T18:30:31.712Z,18.30
2023-07-17T18:32:59.100Z,18.10
2023-07-17T18:35:26.872Z,18.00
2023-07-17T18:37:54.040Z,18.00
2023-07-17T18:40:21.387Z,17.80
2023-07-17T18:42:48.516Z,17.80
2023-07-17T18:45:15.971Z,17.60
2023-07-17T18:47:43.322Z,17.50
2023-07-17T18:50:11.008Z,17.40
2023-07-17T18:52:38.306Z,17.40
2023-07-17T18:55:05.982Z,17.30
2023-07-17T18:57:33.380Z,17.10
2023-07-17T19:00:01.581Z,17.10
2023-07-17T19:02:30.434Z,16.90
2023-07-17T19:04:57.611Z,16.80
2023-07-17T19:07:25.135Z,16.80
2023-07-17T19:09:53.024Z,16.70
2023-07-17T19:12:20.643Z,16.60
2023-07-17T19:14:47.949Z,16.50
2023-07-17T19:17:15.119Z,16.50
2023-07-17T19:19:42.490Z,16.50
2023-07-17T19:22:09.763Z,16.40
2023-07-17T19:24:37.001Z,16.40
2023-07-17T19:27:04.496Z,16.40
2023-07-17T19:29:31.793Z,16.40
2023-07-17T19:31:59.062Z,16.30
2023-07-17T19:34:26.305Z,16.30
2023-07-17T19:36:56.194Z,16.20
2023-07-17T19:39:23.704Z,16.10
2023-07-17T19:41:52.037Z,16.00
2023-07-17T19:44:19.337Z,16.00
2023-07-17T19:46:46.540Z,16.00
2023-07-17T19:49:13.953Z,15.80
2023-07-17T19:51:43.865Z,15.80
2023-07-17T19:54:11.158Z,15.80
2023-07-17T19:56:38.693Z,15.80
2023-07-17T19:59:05.973Z,15.70
2023-07-17T20:01:33.738Z,15.60
2023-07-17T20:04:01.191Z,15.50
2023-07-17T20:06:28.670Z,15.40
2023-07-17T20:08:56.449Z,15.30
2023-07-17T20:11:23.799Z,15.30
2023-07-17T20:13:50.990Z,15.10
2023-07-17T20:16:18.274Z,15.10
2023-07-17T20:18:45.776Z,15.10
2023-07-17T20:21:13.324Z,15.10
2023-07-17T20:23:40.646Z,15.10
2023-07-17T20:26:08.007Z,15.10
2023-07-17T20:28:36.174Z,15.10
2023-07-17T20:31:03.894Z,15.20
2023-07-17T20:33:32.995Z,15.20
2023-07-17T20:36:00.388Z,15.30
2023-07-17T20:38:29.806Z,15.20
2023-07-17T20:40:57.512Z,15.30
2023-07-17T20:43:24.727Z,15.20
2023-07-17T20:45:54.422Z,15.20
2023-07-17T20:48:22.759Z,15.10
2023-07-17T20:51:10.913Z,15.10
2023-07-17T20:53:39.086Z,15.10
2023-07-17T20:56:06.743Z,15.10
2023-07-17T20:58:34.959Z,15.10
2023-07-17T21:01:10.421Z,15.00
2023-07-17T21:03:37.893Z,15.00
2023-07-17T21:06:06.417Z,15.00
2023-07-17T21:08:34.310Z,14.90
2023-07-17T21:11:01.607Z,14.80
2023-07-17T21:13:31.305Z,14.80
2023-07-17T21:16:00.355Z,14.70
2023-07-17T21:18:27.794Z,14.70
2023-07-17T21:20:55.618Z,14.70
2023-07-17T21:23:23.313Z,14.60
2023-07-17T21:25:50.850Z,14.50
2023-07-17T21:28:18.647Z,14.50
2023-07-17T21:30:47.398Z,14.50
2023-07-17T21:33:15.374Z,14.50
2023-07-17T21:35:42.733Z,14.30
2023-07-17T21:38:11.224Z,14.20
2023-07-17T21:40:38.575Z,14.20
2023-07-17T21:43:05.863Z,14.20
2023-07-17T21:45:33.439Z,14.20
2023-07-17T21:48:00.700Z,14.30
2023-07-17T21:50:27.960Z,14.20
2023-07-17T21:52:55.101Z,14.10
2023-07-17T21:55:22.472Z,14.00
2023-07-17T21:57:49.805Z,14.00
2023-07-17T22:00:17.879Z,13.90
2023-07-17T22:02:46.558Z,13.90
2023-07-17T22:05:14.253Z,13.90
2023-07-17T22:07:41.474Z,13.90
2023-07-17T22:10:09.101Z,13.90
2023-07-17T22:12:36.341Z,13.80
2023-07-17T22:15:03.823Z,13.80
2023-07-17T22:17:31.065Z,13.80
2023-07-17T22:19:58.326Z,13.90
2023-07-17T22:22:25.587Z,13.90
2023-07-17T22:24:53.448Z,13.90
2023-07-17T22:27:20.732Z,14.00
2023-07-17T22:29:48.696Z,14.00
2023-07-17T22:32:17.091Z,14.10
2023-07-17T22:34:46.673Z,14.00
2023-07-17T22:37:19.165Z,14.00
2023-07-17T22:39:46.789Z,14.00
2023-07-17T22:42:16.165Z,13.90
2023-07-17T22:44:43.872Z,13.90
2023-07-17T22:47:11.019Z,13.90
2023-07-17T22:49:38.473Z,13.90
2023-07-17T22:52:07.291Z,13.90
2023-07-17T22:54:37.558Z,13.80
2023-07-17T22:57:06.378Z,13.70
2023-07-17T22:59:37.127Z,13.70
2023-07-17T23:02:06.362Z,13.70
2023-07-17T23:04:34.099Z,13.70
2023-07-17T23:07:01.650Z,13.70
2023-07-17T23:09:28.871Z,13.70
2023-07-17T23:11:57.315Z,13.70
2023-07-17T23:14:24.692Z,13.70
2023-07-17T23:16:52.217Z,13.80
2023-07-17T23:19:19.476Z,13.70
2023-07-17T23:21:47.436Z,13.70
2023-07-17T23:24:15.052Z,13.70
2023-07-17T23:26:44.680Z,13.60
2023-07-17T23:29:12.227Z,13.60
2023-07-17T23:31:39.496Z,13.70
2023-07-17T23:34:06.885Z,13.60
2023-07-17T23:36:35.878Z,13.70
2023-07-17T23:39:04.443Z,13.70
2023-07-17T23:41:31.647Z,13.70
2023-07-17T23:43:58.782Z,13.60
2023-07-17T23:46:27.439Z,13.60
2023-07-17T23:48:54.684Z,13.60
2023-07-17T23:51:21.955Z,13.60
2023-07-17T23:53:49.163Z,13.50
2023-07-17T23:56:16.365Z,13.60
2023-07-17T23:58:43.683Z,13.50
